Historique des mesures à Cassis (13260), France
Quotidien Résumé Octobre 12, 2018 Unités:  Métrique    US   Métrique/US
« Précédent (Jour)
Suivant (Jour) »
Quotidien Hebdomadaire Mensuel Annuel Période au choix
  Maximum: Minimum: Moyenne:
Température: TemperatureC °C 17.8 °C 19.1 °C
Point de rosée: DewpointC °C 14.5 °C 15.4 °C
Humidité: Humidity % 73 % 75 %
Vitesse du vent: 0 km/h 0 km/h 2.3 km/h
Rafales: 0 km/h - -
Vent:- - SSE
Pression: PressurehPa hPa 1016.2 hPa -
Précipitations: 0.0 mm    
Historical Graphs
 
 
Mesures pour : Octobre 12, 2018
Heure Temperature Point de rosée Pression Vent Vitesse du vent Rafales Humidité Pluie (par heure) Conditions
TemperatureC °C DewpointC °C PressurehPa hPa Calm     Humidity % HourlyPrecipMM mm SoftwareType W/m2
00:10 19.1 °C 15.4 °C 1016.2 hPa ESE 6.4 km/h 6.4 km/h 79 % 0.0 mm open2300-1.11 W/m2
01:10 18.9 °C 15.4 °C 1016.6 hPa WNW 2.9 km/h 8 km/h 80 % 0.0 mm open2300-1.11 W/m2
02:10 18.3 °C 14.8 °C 1016.9 hPa Calm   2.9 km/h 80 % 0.0 mm open2300-1.11 W/m2
03:10 17.9 °C 14.6 °C 1017.4 hPa Calm   4.7 km/h 81 % 0.0 mm open2300-1.11 W/m2
04:10 18.0 °C 14.7 °C 1017.1 hPa Calm   2.3 km/h 81 % 0.0 mm open2300-1.11 W/m2
05:10 18.0 °C 14.7 °C 1017.6 hPa NW 4 km/h 4 km/h 81 % 0.0 mm open2300-1.11 W/m2
06:10 17.8 °C 14.7 °C 1017.8 hPa NNE 6.9 km/h 6.9 km/h 82 % 0.0 mm open2300-1.11 W/m2
07:10 17.9 °C 14.8 °C 1017.9 hPa Calm   6.4 km/h 82 % 0.0 mm open2300-1.11 W/m2
08:10 18.1 °C 15.2 °C 1019.0 hPa Calm   4.7 km/h 83 % 0.0 mm open2300-1.11 W/m2
09:10 18.8 °C 15.5 °C 1019.8 hPa Calm   4 km/h 81 % 0.0 mm open2300-1.11 W/m2
10:10 19.6 °C 16.3 °C 1020.2 hPa Calm     81 % 0.0 mm open2300-1.11 W/m2
11:10 20.7 °C 16.9 °C 1020.6 hPa South 4 km/h 4 km/h 79 % 0.0 mm open2300-1.11 W/m2
12:10 21.8 °C 17.6 °C 1021.1 hPa SE 7.6 km/h 7.6 km/h 77 % 0.0 mm open2300-1.11 W/m2
13:10 22.2 °C 17.8 °C 1020.8 hPa NNE 6.4 km/h 9.8 km/h 76 % 0.0 mm open2300-1.11 W/m2
14:10 23.1 °C 18.2 °C 1020.4 hPa Calm   8 km/h 74 % 0.0 mm open2300-1.11 W/m2
15:10 23.1 °C 18.2 °C 1020.1 hPa Calm   8 km/h 74 % 0.0 mm open2300-1.11 W/m2
16:10 23.1 °C 18.0 °C 1020.0 hPa SSE 18 km/h 18 km/h 73 % 0.0 mm open2300-1.11 W/m2
17:10 22.8 °C 17.7 °C 1019.7 hPa Calm   5.1 km/h 73 % 0.0 mm open2300-1.11 W/m2
18:10 21.6 °C 16.7 °C 1019.5 hPa Calm     74 % 0.0 mm open2300-1.11 W/m2
19:10 20.5 °C 16.1 °C 1019.8 hPa Calm     76 % 0.0 mm open2300-1.11 W/m2
20:10 19.6 °C 15.5 °C 1020.4 hPa Calm     77 % 0.0 mm open2300-1.11 W/m2
21:10 19.4 °C 15.5 °C 1020.4 hPa Calm     78 % 0.0 mm open2300-1.11 W/m2
22:10 19.4 °C 15.7 °C 1020.4 hPa Calm     79 % 0.0 mm open2300-1.11 W/m2
23:10 18.4 °C 14.5 °C 1020.5 hPa Calm   3.5 km/h 78 % 0.0 mm open2300-1.11 W/m2
Observations météo à CASSIS
WU-History script by Weather Underground - 1 mb